Time;durP1;ratioP1;P1;durP2;ratioP2;P2;SDS_P1;SDS_P2;PMS_P1;PMS_P2;Temp;Humidity;BMP_temperature;BMP_pressure;BME280_temperature;BME280_humidity;BME280_pressure;Samples;Min_cycle;Max_cycle;Signal;HPM_P1;HPM_P2
2022/04/20 00:01:38;;;;;;;4.40;3.20;;;10.00;98.20;;;;;;5076042;28;20043;-72
2022/04/20 00:04:03;;;;;;;4.80;3.30;;;10.00;98.40;;;;;;5076386;28;20043;-72
2022/04/20 00:06:30;;;;;;;5.53;3.55;;;10.00;98.00;;;;;;5076070;28;20382;-72
2022/04/20 00:08:56;;;;;;;6.07;3.05;;;9.90;97.80;;;;;;5094031;28;20058;-72
2022/04/20 00:11:21;;;;;;;8.70;3.72;;;9.90;98.20;;;;;;5075972;28;20471;-72
2022/04/20 00:13:47;;;;;;;5.03;3.35;;;9.90;98.00;;;;;;5076257;28;20400;-71
2022/04/20 00:16:12;;;;;;;8.48;3.38;;;9.80;98.20;;;;;;5075891;28;20473;-71
2022/04/20 00:18:38;;;;;;;5.43;3.40;;;9.80;98.30;;;;;;5075729;28;20458;-72
2022/04/20 00:21:04;;;;;;;7.15;3.90;;;9.80;98.20;;;;;;5075714;28;20036;-72
2022/04/20 00:23:29;;;;;;;9.50;3.83;;;9.70;98.30;;;;;;5075641;28;20050;-71
2022/04/20 00:25:55;;;;;;;6.57;3.45;;;9.70;98.60;;;;;;5059092;28;20028;-71
2022/04/20 00:28:20;;;;;;;4.80;3.65;;;9.70;99.20;;;;;;5075636;28;20089;-72
2022/04/20 00:30:46;;;;;;;5.68;3.75;;;9.60;99.10;;;;;;5075597;28;20085;-71
2022/04/20 00:33:11;;;;;;;5.72;3.47;;;9.60;99.10;;;;;;5075567;28;20048;-71
2022/04/20 00:35:39;;;;;;;6.63;3.63;;;9.50;99.10;;;;;;5075563;28;20043;-71
2022/04/20 00:38:05;;;;;;;9.63;3.70;;;9.50;99.20;;;;;;5074885;28;20063;-72
2022/04/20 00:40:30;;;;;;;9.32;3.55;;;9.50;99.60;;;;;;5075285;28;20090;-71
2022/04/20 00:42:56;;;;;;;5.20;3.50;;;9.40;99.60;;;;;;5075382;28;20052;-72
2022/04/20 00:45:23;;;;;;;5.18;3.22;;;9.40;99.60;;;;;;5058735;28;20412;-71
2022/04/20 00:47:50;;;;;;;8.27;4.20;;;9.40;99.70;;;;;;5075416;28;20122;-71
2022/04/20 00:50:16;;;;;;;7.63;3.88;;;9.40;99.90;;;;;;5075573;28;20048;-71
2022/04/20 00:52:42;;;;;;;7.05;3.65;;;9.40;99.90;;;;;;5075379;28;20169;-71
2022/04/20 00:55:08;;;;;;;9.88;3.75;;;9.30;99.90;;;;;;5058678;28;20173;-71
2022/04/20 00:57:33;;;;;;;7.53;4.18;;;9.30;99.90;;;;;;5058577;28;20036;-71
2022/04/20 01:00:03;;;;;;;6.80;4.10;;;9.30;99.90;;;;;;5075194;28;20068;-72
2022/04/20 01:02:30;;;;;;;5.53;3.83;;;9.30;99.90;;;;;;5075328;28;20151;-72
2022/04/20 01:04:56;;;;;;;5.13;3.83;;;9.30;99.90;;;;;;5075180;28;20062;-72
2022/04/20 01:07:22;;;;;;;5.20;3.47;;;9.20;99.90;;;;;;5075191;28;20399;-72
2022/04/20 01:09:48;;;;;;;7.63;4.28;;;9.20;99.90;;;;;;5075308;28;20040;-72
2022/04/20 01:12:14;;;;;;;7.35;4.15;;;9.20;99.90;;;;;;5075085;28;20514;-72
2022/04/20 01:14:40;;;;;;;8.02;4.15;;;9.10;99.90;;;;;;5075118;28;20047;-72
2022/04/20 01:17:06;;;;;;;6.22;4.03;;;9.10;99.90;;;;;;5075084;28;20105;-72
2022/04/20 01:19:41;;;;;;;7.20;4.13;;;9.10;99.90;;;;;;5074989;28;20079;-72
2022/04/20 01:22:08;;;;;;;7.82;4.25;;;9.10;99.90;;;;;;5075240;28;20118;-72
2022/04/20 01:24:35;;;;;;;8.18;3.80;;;9.00;99.90;;;;;;5075219;28;20072;-72
2022/04/20 01:27:02;;;;;;;7.00;3.67;;;9.00;99.90;;;;;;5075026;28;20040;-72
2022/04/20 01:29:29;;;;;;;8.10;3.88;;;9.00;99.90;;;;;;5074927;28;20515;-72
2022/04/20 01:31:55;;;;;;;8.15;4.70;;;8.90;99.90;;;;;;5074981;28;20040;-72
2022/04/20 01:34:20;;;;;;;5.57;4.20;;;8.90;99.90;;;;;;5074891;28;20043;-72
2022/04/20 01:36:47;;;;;;;6.50;4.45;;;8.90;99.90;;;;;;5074890;28;20040;-72
2022/04/20 01:39:12;;;;;;;6.70;4.68;;;8.80;99.90;;;;;;5074978;28;20114;-72
2022/04/20 01:41:38;;;;;;;8.65;4.80;;;8.80;99.90;;;;;;5074736;28;20146;-72
2022/04/20 01:44:04;;;;;;;8.27;4.30;;;8.80;99.90;;;;;;5074965;28;20036;-72
2022/04/20 01:46:29;;;;;;;7.80;4.20;;;8.80;99.90;;;;;;5074794;28;20493;-72
2022/04/20 01:48:55;;;;;;;6.82;5.22;;;8.80;99.90;;;;;;5074730;28;20039;-72
2022/04/20 01:54:05;;;;;;;8.07;4.43;;;8.70;99.90;;;;;;5078804;28;20416;-72
2022/04/20 01:56:30;;;;;;;7.68;4.13;;;8.70;99.90;;;;;;5078507;28;20036;-72
2022/04/20 01:58:56;;;;;;;7.80;4.50;;;8.70;99.90;;;;;;5078428;28;20065;-72
2022/04/20 02:04:08;;;;;;;6.82;4.38;;;8.70;99.90;;;;;;5078380;28;20048;-72
2022/04/20 02:06:34;;;;;;;7.72;4.50;;;8.70;99.90;;;;;;5078247;28;20051;-72
2022/04/20 02:09:00;;;;;;;5.43;3.95;;;8.60;99.90;;;;;;5078253;28;20044;-72
2022/04/20 02:11:25;;;;;;;6.22;4.20;;;8.60;99.90;;;;;;5061681;28;20040;-72
2022/04/20 02:13:51;;;;;;;7.90;4.72;;;8.60;99.90;;;;;;5078235;28;20089;-72
2022/04/20 02:16:16;;;;;;;8.68;4.50;;;8.60;99.90;;;;;;5078150;28;20132;-72
2022/04/20 02:18:42;;;;;;;9.00;4.75;;;8.60;99.90;;;;;;5078084;28;20040;-72
2022/04/20 02:21:07;;;;;;;6.35;4.70;;;8.60;99.90;;;;;;5078124;28;20058;-72
2022/04/20 02:23:33;;;;;;;7.28;4.43;;;8.50;99.90;;;;;;5077907;28;20081;-72
2022/04/20 02:25:58;;;;;;;6.75;4.47;;;8.50;99.90;;;;;;5078031;28;20032;-72
2022/04/20 02:28:24;;;;;;;9.38;4.85;;;8.50;99.90;;;;;;5078170;28;20036;-72
2022/04/20 02:30:49;;;;;;;8.98;4.68;;;8.50;99.90;;;;;;5077906;28;20484;-72
2022/04/20 02:33:15;;;;;;;9.00;4.68;;;8.50;99.90;;;;;;5077889;28;20046;-72
2022/04/20 02:35:41;;;;;;;7.63;4.57;;;8.50;99.90;;;;;;5077890;28;20040;-72
2022/04/20 02:38:10;;;;;;;6.80;4.38;;;8.50;99.90;;;;;;5077976;28;20131;-72
2022/04/20 02:40:37;;;;;;;10.13;4.50;;;8.40;99.90;;;;;;5077608;28;20044;-72
2022/04/20 02:43:02;;;;;;;8.02;4.63;;;8.40;99.90;;;;;;5077650;28;20040;-72
2022/04/20 02:45:28;;;;;;;7.50;4.28;;;8.40;99.90;;;;;;5077626;28;20044;-72
2022/04/20 02:47:54;;;;;;;7.15;4.22;;;8.40;99.90;;;;;;5077643;28;20036;-72
2022/04/20 02:50:19;;;;;;;6.50;4.80;;;8.40;99.90;;;;;;5077476;28;20180;-72
2022/04/20 02:52:45;;;;;;;7.63;4.28;;;8.40;99.90;;;;;;5077514;28;20177;-72
2022/04/20 02:55:10;;;;;;;7.50;4.93;;;8.40;99.90;;;;;;5077510;28;20124;-72
2022/04/20 02:57:36;;;;;;;6.22;4.60;;;8.30;99.90;;;;;;5077688;28;20035;-72
2022/04/20 03:00:02;;;;;;;10.95;5.00;;;8.30;99.90;;;;;;5077358;28;20557;-72
2022/04/20 03:02:28;;;;;;;6.90;4.88;;;8.30;99.90;;;;;;5076619;28;20040;-72
2022/04/20 03:04:53;;;;;;;5.53;4.63;;;8.30;99.90;;;;;;5077294;28;20048;-72
2022/04/20 03:07:19;;;;;;;7.20;4.72;;;8.20;99.90;;;;;;5077233;28;20123;-72
2022/04/20 03:09:45;;;;;;;6.60;4.70;;;8.20;99.90;;;;;;5077116;28;20040;-72
2022/04/20 03:12:10;;;;;;;7.35;4.95;;;8.10;99.90;;;;;;5077185;28;20048;-72
2022/04/20 03:14:36;;;;;;;7.68;5.00;;;8.10;99.90;;;;;;5077058;28;20051;-72
2022/04/20 03:17:02;;;;;;;13.07;5.32;;;8.10;99.90;;;;;;5077028;28;20044;-72
2022/04/20 03:19:27;;;;;;;12.35;5.10;;;8.10;99.90;;;;;;5076947;28;20085;-72
2022/04/20 03:21:53;;;;;;;7.43;4.70;;;8.00;99.90;;;;;;5076890;28;20101;-72
2022/04/20 03:24:18;;;;;;;7.03;4.60;;;8.00;99.90;;;;;;5077163;28;20051;-72
2022/04/20 03:26:45;;;;;;;7.70;5.07;;;7.90;99.90;;;;;;5077742;28;20481;-72
2022/04/20 03:29:11;;;;;;;6.93;5.22;;;7.90;99.90;;;;;;5076900;28;20040;-72
2022/04/20 03:31:38;;;;;;;9.55;4.68;;;7.90;99.90;;;;;;5076787;28;20085;-72
2022/04/20 03:34:04;;;;;;;8.00;4.90;;;7.90;99.90;;;;;;5076998;28;20044;-72
2022/04/20 03:36:30;;;;;;;8.48;5.18;;;7.90;99.90;;;;;;5076634;28;20036;-72
2022/04/20 03:38:56;;;;;;;6.28;4.63;;;7.80;99.90;;;;;;5076598;28;20043;-72
2022/04/20 03:41:24;;;;;;;7.00;4.30;;;7.80;99.90;;;;;;5076788;28;20036;-72
2022/04/20 03:43:50;;;;;;;6.75;4.68;;;7.80;99.90;;;;;;5076286;28;20039;-72
2022/04/20 03:46:16;;;;;;;10.07;5.43;;;7.70;99.90;;;;;;5076499;28;20040;-72
2022/04/20 03:48:42;;;;;;;8.55;4.80;;;7.70;99.90;;;;;;5076321;28;20040;-72
2022/04/20 03:51:07;;;;;;;8.38;4.88;;;7.70;99.90;;;;;;5059797;28;20032;-72
2022/04/20 03:53:33;;;;;;;10.48;5.00;;;7.70;99.90;;;;;;5076332;28;20039;-72
2022/04/20 03:55:58;;;;;;;9.15;5.28;;;7.60;99.90;;;;;;5076229;28;20071;-72
2022/04/20 03:58:24;;;;;;;7.53;5.30;;;7.60;99.90;;;;;;5076157;28;20044;-72
2022/04/20 04:00:51;;;;;;;7.90;4.95;;;7.60;99.90;;;;;;5076443;28;20050;-72
2022/04/20 04:03:17;;;;;;;10.13;5.45;;;7.50;99.90;;;;;;5075973;28;20036;-72
2022/04/20 04:05:43;;;;;;;8.32;5.40;;;7.50;99.90;;;;;;5076369;28;20097;-72
2022/04/20 04:08:09;;;;;;;7.32;4.80;;;7.50;99.90;;;;;;5076026;28;20496;-72
2022/04/20 04:10:35;;;;;;;9.00;4.80;;;7.40;99.90;;;;;;5075916;28;20036;-72
2022/04/20 04:13:01;;;;;;;8.02;4.65;;;7.50;99.90;;;;;;5059092;28;20036;-72
2022/04/20 04:15:28;;;;;;;10.02;4.68;;;7.40;99.90;;;;;;5075856;28;20504;-72
2022/04/20 04:17:59;;;;;;;10.43;5.40;;;7.40;99.90;;;;;;5075848;28;20122;-72
2022/04/20 04:20:28;;;;;;;8.88;5.63;;;7.40;99.90;;;;;;5076092;28;20504;-72
2022/04/20 04:22:55;;;;;;;10.40;5.18;;;7.40;99.90;;;;;;5075725;28;20040;-72
2022/04/20 04:25:20;;;;;;;7.22;4.93;;;7.30;99.90;;;;;;5075749;28;20036;-72
2022/04/20 04:27:47;;;;;;;9.75;5.32;;;7.30;99.90;;;;;;5075943;28;20039;-72
2022/04/20 04:30:12;;;;;;;7.38;4.82;;;7.30;99.90;;;;;;5075826;28;20044;-72
2022/04/20 04:32:38;;;;;;;8.35;5.57;;;7.20;99.90;;;;;;5075874;28;20526;-72
2022/04/20 04:35:04;;;;;;;7.43;4.55;;;7.20;99.90;;;;;;5075631;28;20051;-72
2022/04/20 04:37:30;;;;;;;8.43;4.80;;;7.20;99.90;;;;;;5075511;28;20043;-72
2022/04/20 04:39:56;;;;;;;8.15;4.90;;;7.10;99.90;;;;;;5075978;28;20032;-72
2022/04/20 04:42:22;;;;;;;7.40;5.10;;;7.10;99.90;;;;;;5075711;28;20130;-72
2022/04/20 04:44:48;;;;;;;8.85;4.65;;;7.10;99.90;;;;;;5075509;28;20128;-71
2022/04/20 04:49:58;;;;;;;7.28;4.28;;;7.10;99.90;;;;;;5075361;28;20040;-71
2022/04/20 04:52:23;;;;;;;6.80;4.55;;;7.00;99.90;;;;;;5058887;28;20044;-71
2022/04/20 04:54:49;;;;;;;6.72;4.47;;;7.00;99.90;;;;;;5075390;28;20044;-71
2022/04/20 04:57:15;;;;;;;6.30;4.60;;;7.00;99.90;;;;;;5058566;28;20142;-71
2022/04/20 04:59:42;;;;;;;8.63;4.88;;;7.10;99.90;;;;;;5075169;28;20042;-71
2022/04/20 05:02:08;;;;;;;7.10;4.72;;;7.10;99.90;;;;;;5075375;28;20546;-71
2022/04/20 05:04:39;;;;;;;9.10;4.80;;;7.00;99.90;;;;;;5075464;28;20075;-71
2022/04/20 05:07:05;;;;;;;5.60;4.20;;;7.10;99.90;;;;;;5075221;28;20092;-71
2022/04/20 05:09:31;;;;;;;9.73;4.50;;;7.10;99.90;;;;;;5075058;28;20067;-71
2022/04/20 05:11:58;;;;;;;7.13;4.28;;;7.10;99.90;;;;;;5075197;28;20092;-71
2022/04/20 05:14:24;;;;;;;5.47;3.97;;;7.10;99.90;;;;;;5075182;28;20096;-72
2022/04/20 05:16:50;;;;;;;6.45;4.10;;;7.10;99.90;;;;;;5075124;28;20126;-72
2022/04/20 05:19:16;;;;;;;8.68;4.55;;;7.10;99.90;;;;;;5075757;28;20113;-73
2022/04/20 05:21:43;;;;;;;5.70;4.40;;;7.10;99.90;;;;;;5075315;28;20040;-73
2022/04/20 05:24:08;;;;;;;7.20;4.07;;;7.10;99.90;;;;;;5075178;28;20048;-73
2022/04/20 05:26:34;;;;;;;7.57;4.55;;;7.20;99.90;;;;;;5079169;28;20059;-73
2022/04/20 05:29:00;;;;;;;8.85;3.92;;;7.20;99.90;;;;;;5079214;28;20044;-73
2022/04/20 05:31:26;;;;;;;6.57;3.80;;;7.20;99.90;;;;;;5079673;28;20059;-75
2022/04/20 05:33:51;;;;;;;6.05;4.00;;;7.30;99.90;;;;;;5079418;28;20036;-75
2022/04/20 05:36:20;;;;;;;6.05;3.95;;;7.30;99.90;;;;;;5079205;28;20554;-74
2022/04/20 05:41:39;;;;;;;6.20;4.18;;;7.40;99.90;;;;;;5079026;28;20040;-74
2022/04/20 05:44:05;;;;;;;7.70;4.28;;;7.50;99.90;;;;;;5078942;28;20044;-74
2022/04/20 05:46:33;;;;;;;10.63;4.50;;;7.50;99.90;;;;;;5079375;28;20085;-74
2022/04/20 05:48:59;;;;;;;6.85;4.13;;;7.50;99.90;;;;;;5079048;28;20082;-74
2022/04/20 05:51:24;;;;;;;6.60;4.05;;;7.60;99.90;;;;;;5078948;28;20036;-74
2022/04/20 05:53:50;;;;;;;8.80;4.32;;;7.60;99.90;;;;;;5078993;28;20051;-74
2022/04/20 05:56:16;;;;;;;8.63;4.30;;;7.70;99.90;;;;;;5078844;28;20036;-74
2022/04/20 05:58:41;;;;;;;6.35;4.10;;;7.70;99.90;;;;;;5079133;28;20084;-74
2022/04/20 06:01:07;;;;;;;10.23;3.97;;;7.80;99.90;;;;;;5078805;28;20515;-74
2022/04/20 06:03:35;;;;;;;6.80;3.95;;;7.90;99.90;;;;;;5078728;28;20036;-74
2022/04/20 06:06:03;;;;;;;9.15;4.22;;;7.90;99.90;;;;;;5079173;28;20548;-74
2022/04/20 06:08:29;;;;;;;8.95;3.92;;;8.00;99.90;;;;;;5062049;28;20484;-73
2022/04/20 06:10:57;;;;;;;7.75;3.90;;;8.00;99.90;;;;;;5078961;28;20036;-74
2022/04/20 06:13:23;;;;;;;6.95;4.15;;;8.10;99.90;;;;;;5078963;28;20426;-74
2022/04/20 06:15:48;;;;;;;5.25;3.50;;;8.20;99.90;;;;;;5079036;28;20448;-73
2022/04/20 06:18:14;;;;;;;6.75;4.00;;;8.20;99.90;;;;;;5078921;28;20040;-74
2022/04/20 06:20:40;;;;;;;5.25;3.50;;;8.30;99.90;;;;;;5078743;28;20075;-74
2022/04/20 06:23:06;;;;;;;7.18;3.88;;;8.30;99.90;;;;;;5079059;28;20032;-74
2022/04/20 06:25:31;;;;;;;6.25;3.50;;;8.40;99.90;;;;;;5078835;28;20036;-74
2022/04/20 06:27:57;;;;;;;6.60;3.78;;;8.50;99.90;;;;;;5079124;28;20097;-74
2022/04/20 06:30:22;;;;;;;6.13;3.45;;;8.50;99.90;;;;;;5078933;28;20036;-74
2022/04/20 06:32:49;;;;;;;5.32;3.38;;;8.60;99.90;;;;;;5079087;28;20036;-74
2022/04/20 06:35:15;;;;;;;5.40;3.28;;;8.70;99.90;;;;;;5078779;28;20404;-73
2022/04/20 06:37:40;;;;;;;7.22;3.83;;;8.80;99.90;;;;;;5077214;28;20047;-73
2022/04/20 06:40:06;;;;;;;8.07;3.58;;;8.90;99.90;;;;;;5078823;28;20044;-73
2022/04/20 06:42:33;;;;;;;5.57;3.33;;;9.00;99.90;;;;;;5078304;28;20061;-73
2022/04/20 06:44:58;;;;;;;5.97;2.97;;;9.10;99.90;;;;;;5061400;28;20079;-73
2022/04/20 06:47:24;;;;;;;7.22;3.15;;;9.20;99.90;;;;;;5061650;28;20071;-74
2022/04/20 06:49:49;;;;;;;4.20;2.95;;;9.20;99.90;;;;;;5077966;28;20110;-74
2022/04/20 07:00:27;;;;;;;6.30;3.00;;;9.40;99.90;;;;;;5077697;28;20496;-74
2022/04/20 07:03:00;;;;;;;7.28;3.50;;;9.40;99.90;;;;;;5077610;28;20036;-74
2022/04/20 07:05:26;;;;;;;5.38;3.30;;;9.50;99.90;;;;;;5077719;28;20036;-74
2022/04/20 07:07:51;;;;;;;5.03;3.63;;;9.50;99.90;;;;;;5077715;28;20080;-74
2022/04/20 07:10:17;;;;;;;8.35;3.63;;;9.60;99.90;;;;;;5077501;28;20118;-74
2022/04/20 07:12:42;;;;;;;9.75;3.53;;;9.70;99.90;;;;;;5077995;28;20051;-74
2022/04/20 07:15:08;;;;;;;11.90;3.83;;;9.70;99.90;;;;;;5077946;28;20511;-74
2022/04/20 07:17:34;;;;;;;5.38;3.33;;;9.80;99.90;;;;;;5060646;28;20424;-74
2022/04/20 07:20:01;;;;;;;5.70;3.67;;;9.90;99.90;;;;;;5077009;28;20032;-74
2022/04/20 07:22:27;;;;;;;6.20;3.50;;;10.10;99.90;;;;;;5077370;28;20148;-75
2022/04/20 07:24:52;;;;;;;6.63;3.42;;;10.10;99.90;;;;;;5077869;28;20520;-75
2022/04/20 07:27:18;;;;;;;9.02;3.33;;;10.20;99.90;;;;;;5077296;28;20028;-75
2022/04/20 07:29:44;;;;;;;7.35;3.65;;;10.30;99.90;;;;;;5077270;28;20115;-75
2022/04/20 07:32:09;;;;;;;6.65;3.45;;;10.40;99.90;;;;;;5077350;28;20127;-74
2022/04/20 07:34:35;;;;;;;7.03;4.05;;;10.50;99.90;;;;;;5077402;28;20416;-74
2022/04/20 07:37:00;;;;;;;7.32;3.60;;;10.60;99.90;;;;;;5060365;28;20511;-74
2022/04/20 07:39:26;;;;;;;3.88;2.67;;;10.70;99.90;;;;;;5076718;28;20036;-74
2022/04/20 07:41:51;;;;;;;5.35;3.05;;;10.80;99.50;;;;;;5076781;28;20040;-74
2022/04/20 07:44:17;;;;;;;6.05;3.10;;;10.80;98.00;;;;;;5076437;28;20040;-74
2022/04/20 07:46:42;;;;;;;4.53;2.78;;;10.90;97.50;;;;;;5076796;28;20089;-74
2022/04/20 07:51:53;;;;;;;7.55;2.85;;;11.10;95.60;;;;;;5076396;28;20484;-74
2022/04/20 07:54:18;;;;;;;5.65;2.72;;;11.30;92.90;;;;;;5076397;28;20040;-74
2022/04/20 07:56:44;;;;;;;5.10;2.75;;;11.40;92.90;;;;;;5059944;28;20032;-73
2022/04/20 07:59:09;;;;;;;5.47;2.28;;;11.50;90.80;;;;;;5076365;28;20523;-73
2022/04/20 08:01:35;;;;;;;6.78;2.63;;;11.70;87.20;;;;;;5076734;28;20128;-73
2022/04/20 08:04:00;;;;;;;4.32;2.42;;;11.80;85.60;;;;;;5076212;28;20506;-73
2022/04/20 08:06:27;;;;;;;3.85;2.35;;;11.90;81.40;;;;;;5076251;28;20039;-73
2022/04/20 08:08:52;;;;;;;6.78;2.58;;;12.10;76.60;;;;;;5076333;28;20036;-73
2022/04/20 08:11:18;;;;;;;3.55;1.90;;;12.20;73.50;;;;;;5076042;28;20614;-73
2022/04/20 08:16:29;;;;;;;5.35;2.30;;;12.50;69.20;;;;;;5075999;28;20085;-74
2022/04/20 08:18:54;;;;;;;6.47;2.40;;;12.70;68.30;;;;;;5059533;28;20377;-74
2022/04/20 08:21:20;;;;;;;4.72;2.55;;;12.80;68.40;;;;;;5075790;28;20575;-74
2022/04/20 08:23:46;;;;;;;3.50;2.00;;;12.90;65.30;;;;;;5075633;28;20038;-74
2022/04/20 08:26:13;;;;;;;3.42;1.92;;;13.00;63.00;;;;;;5076015;28;20554;-74
2022/04/20 08:28:39;;;;;;;3.35;2.08;;;13.20;62.00;;;;;;5075549;28;20032;-73
2022/04/20 08:31:05;;;;;;;5.20;1.98;;;13.30;61.60;;;;;;5075645;28;20039;-73
2022/04/20 08:33:30;;;;;;;2.97;1.70;;;13.40;60.10;;;;;;5075581;28;20114;-73
2022/04/20 08:35:56;;;;;;;5.85;2.00;;;13.40;59.40;;;;;;5075845;28;20028;-74
2022/04/20 08:38:22;;;;;;;4.32;1.85;;;13.60;58.70;;;;;;5075722;28;20485;-74
2022/04/20 08:40:50;;;;;;;3.35;1.60;;;13.70;57.70;;;;;;5075767;28;20047;-74
2022/04/20 08:43:15;;;;;;;2.95;1.40;;;13.90;57.10;;;;;;5075553;28;20400;-74
2022/04/20 08:45:42;;;;;;;3.70;1.55;;;14.00;55.80;;;;;;5075265;28;20504;-74
2022/04/20 08:48:08;;;;;;;4.22;1.60;;;14.20;54.90;;;;;;5075365;28;20047;-74
2022/04/20 08:50:34;;;;;;;7.45;1.65;;;14.30;55.00;;;;;;5075286;28;20036;-74
2022/04/20 08:53:01;;;;;;;3.60;1.27;;;14.50;53.50;;;;;;5075631;28;20101;-74
2022/04/20 08:55:27;;;;;;;13.90;1.60;;;14.40;52.00;;;;;;5075603;28;20062;-75
2022/04/20 08:57:53;;;;;;;2.65;1.30;;;14.40;51.60;;;;;;5075545;28;20036;-74
2022/04/20 09:00:25;;;;;;;4.63;1.27;;;14.60;50.60;;;;;;5074778;28;20036;-74
2022/04/20 09:02:53;;;;;;;5.13;1.30;;;14.70;49.60;;;;;;5075324;28;20049;-74
2022/04/20 09:05:20;;;;;;;4.65;1.52;;;14.90;50.00;;;;;;5075282;28;20531;-74
2022/04/20 09:07:45;;;;;;;2.08;1.27;;;15.00;49.40;;;;;;5075535;28;20035;-74
2022/04/20 09:10:11;;;;;;;4.72;1.27;;;15.20;48.30;;;;;;5075417;28;20036;-74
2022/04/20 09:12:42;;;;;;;4.80;1.13;;;15.40;46.80;;;;;;5075154;28;20075;-74
2022/04/20 09:15:09;;;;;;;2.45;1.23;;;15.60;46.40;;;;;;5076583;28;20070;-75
2022/04/20 09:17:46;;;;;;;5.05;1.25;;;15.70;45.80;;;;;;5058602;28;20507;-75
2022/04/20 09:20:17;;;;;;;3.97;1.45;;;15.90;45.70;;;;;;5075188;28;20040;-75
2022/04/20 09:22:59;;;;;;;5.28;1.33;;;16.10;45.60;;;;;;5058398;28;20051;-76
2022/04/20 09:25:38;;;;;;;2.90;1.40;;;16.30;45.10;;;;;;5075350;28;20040;-76
2022/04/20 09:28:06;;;;;;;4.03;1.35;;;16.50;45.00;;;;;;5075459;28;20484;-75
2022/04/20 09:30:40;;;;;;;4.05;1.27;;;16.70;44.70;;;;;;5075065;28;20040;-75
2022/04/20 09:33:07;;;;;;;4.30;1.23;;;16.80;44.30;;;;;;5075048;28;20075;-75
2022/04/20 09:35:51;;;;;;;9.43;0.95;;;16.80;44.30;;;;;;5079297;28;20046;-76
2022/04/20 09:38:20;;;;;;;;;;;16.80;43.90;;;;;;5079979;28;20048;-76
2022/04/20 09:40:46;;;;;;;1.65;0.80;;;16.80;43.50;;;;;;5060887;28;19916;-76
2022/04/20 09:43:16;;;;;;;4.35;1.20;;;16.90;44.10;;;;;;5060068;28;20036;-76
2022/04/20 09:45:42;;;;;;;3.72;1.00;;;16.90;41.90;;;;;;5076010;28;20072;-76
2022/04/20 09:51:20;;;;;;;2.05;1.00;;;17.20;41.10;;;;;;5075519;28;20457;-76
2022/04/20 09:53:50;;;;;;;2.22;0.90;;;17.50;40.80;;;;;;5075376;28;20047;-76
2022/04/20 09:56:19;;;;;;;2.55;1.10;;;17.60;41.20;;;;;;5075157;28;20040;-76
2022/04/20 09:58:46;;;;;;;4.00;1.00;;;17.80;40.60;;;;;;5075209;28;20036;-75
2022/04/20 10:01:45;;;;;;;2.35;1.02;;;18.00;39.90;;;;;;5075509;28;20067;-75
2022/04/20 10:04:11;;;;;;;1.92;0.80;;;18.10;39.00;;;;;;5010985;28;20046;-76
2022/04/20 10:06:40;;;;;;;2.03;0.88;;;18.00;40.00;;;;;;5011151;28;20541;-76
2022/04/20 10:09:08;;;;;;;4.63;0.93;;;18.10;39.80;;;;;;4994604;28;20041;-76
2022/04/20 10:11:35;;;;;;;4.68;1.33;;;18.20;39.10;;;;;;5012851;28;20177;-76
2022/04/20 10:16:48;;;;;;;3.10;1.20;;;18.60;39.00;;;;;;4998324;28;20050;-76
2022/04/20 10:19:16;;;;;;;2.15;0.88;;;18.80;39.00;;;;;;4997855;28;20396;-75
2022/04/20 10:21:49;;;;;;;4.03;0.95;;;18.80;37.90;;;;;;5014463;28;20168;-75
2022/04/20 10:24:18;;;;;;;2.88;1.40;;;18.90;37.90;;;;;;5014429;28;20160;-76
2022/04/20 10:26:46;;;;;;;3.50;1.10;;;18.90;39.20;;;;;;4998204;28;20053;-76
2022/04/20 10:29:23;;;;;;;4.32;1.05;;;19.10;38.20;;;;;;4997787;28;20529;-76
2022/04/20 10:32:05;;;;;;;2.35;1.30;;;19.30;38.70;;;;;;5014183;28;20042;-76
2022/04/20 10:34:32;;;;;;;5.63;1.30;;;19.40;38.90;;;;;;4998093;28;20042;-76
2022/04/20 10:36:59;;;;;;;2.17;1.23;;;19.40;38.60;;;;;;5014261;28;20100;-76
2022/04/20 10:39:29;;;;;;;6.78;1.63;;;19.50;38.70;;;;;;5028011;28;20062;-76
2022/04/20 10:42:16;;;;;;;3.15;1.35;;;19.60;38.10;;;;;;5061214;28;20081;-76
2022/04/20 10:45:03;;;;;;;3.67;1.23;;;19.70;38.40;;;;;;5061362;28;20400;-75
2022/04/20 10:47:33;;;;;;;4.00;1.40;;;19.80;39.20;;;;;;5061014;28;20036;-75
2022/04/20 10:50:12;;;;;;;2.80;1.20;;;20.00;39.50;;;;;;5077633;28;20047;-76
2022/04/20 10:52:41;;;;;;;3.67;1.02;;;20.20;37.80;;;;;;5077579;28;20051;-76
2022/04/20 10:55:09;;;;;;;1.83;1.25;;;20.20;38.70;;;;;;5077527;28;20405;-76
2022/04/20 10:57:35;;;;;;;2.85;1.23;;;20.30;38.90;;;;;;5077420;28;20040;-76
2022/04/20 11:00:24;;;;;;;4.28;1.23;;;20.50;39.10;;;;;;5077686;28;20119;-76
2022/04/20 11:03:04;;;;;;;3.85;0.90;;;20.70;37.60;;;;;;5077378;28;20055;-76
2022/04/20 11:05:30;;;;;;;2.47;1.20;;;20.70;38.00;;;;;;5060839;28;20040;-76
2022/04/20 11:08:16;;;;;;;5.53;1.52;;;20.80;37.30;;;;;;5077404;28;20044;-76
2022/04/20 11:19:52;;;;;;;6.82;1.42;;;20.30;37.10;;;;;;5076897;28;20040;-76
2022/04/20 11:22:19;;;;;;;2.35;1.20;;;20.30;37.70;;;;;;5076364;28;20191;-76
2022/04/20 11:24:44;;;;;;;3.33;1.15;;;20.50;38.40;;;;;;5077019;28;20075;-76
2022/04/20 11:27:11;;;;;;;3.20;1.13;;;20.50;37.80;;;;;;5076982;28;20078;-76
2022/04/20 11:29:37;;;;;;;2.45;1.23;;;20.60;37.70;;;;;;5076893;28;20382;-76
2022/04/20 11:32:07;;;;;;;6.38;1.23;;;20.60;37.30;;;;;;5076999;28;20220;-76
2022/04/20 11:34:34;;;;;;;5.07;1.40;;;20.70;37.20;;;;;;5076832;28;20485;-76
2022/04/20 11:37:02;;;;;;;3.22;1.20;;;20.80;37.00;;;;;;5077127;28;20095;-76
2022/04/20 11:39:30;;;;;;;3.60;1.35;;;21.00;36.90;;;;;;5076560;28;20119;-76
2022/04/20 11:41:58;;;;;;;4.70;1.17;;;21.20;37.00;;;;;;5076927;28;20032;-76
2022/04/20 11:44:25;;;;;;;2.38;1.10;;;21.30;36.70;;;;;;5076835;28;20040;-76
2022/04/20 11:46:57;;;;;;;1.73;1.00;;;21.40;36.20;;;;;;5076909;28;20040;-75
2022/04/20 11:49:30;;;;;;;3.80;1.23;;;21.30;36.00;;;;;;5078780;28;20032;-76
2022/04/20 11:51:57;;;;;;;3.70;1.00;;;21.40;36.60;;;;;;5079651;28;20036;-76
2022/04/20 11:54:24;;;;;;;3.03;1.15;;;21.50;36.90;;;;;;5076970;28;20048;-76
2022/04/20 11:56:50;;;;;;;2.20;1.13;;;21.50;36.70;;;;;;5060144;28;20114;-75
2022/04/20 11:59:18;;;;;;;1.73;0.90;;;21.40;36.40;;;;;;5076480;28;20032;-75
2022/04/20 12:01:47;;;;;;;2.63;0.90;;;21.40;36.70;;;;;;5060324;28;20043;-75
2022/04/20 12:04:21;;;;;;;2.58;1.10;;;21.50;37.30;;;;;;5059732;28;20040;-75
2022/04/20 12:06:52;;;;;;;2.80;1.08;;;21.70;36.60;;;;;;5076509;28;20047;-75
2022/04/20 12:09:25;;;;;;;2.97;1.10;;;21.70;36.10;;;;;;5076758;28;20040;-75
2022/04/20 12:11:57;;;;;;;1.38;0.88;;;21.90;35.30;;;;;;5077082;28;20043;-75
2022/04/20 12:14:33;;;;;;;2.45;0.90;;;22.00;35.50;;;;;;5077965;28;20126;-75
2022/04/20 12:17:26;;;;;;;4.03;1.10;;;22.00;35.60;;;;;;5077397;28;20036;-75
2022/04/20 12:19:53;;;;;;;2.03;0.95;;;22.10;35.70;;;;;;5056054;28;20047;-76
2022/04/20 12:22:21;;;;;;;1.95;1.05;;;22.20;35.40;;;;;;5076663;28;20138;-76
2022/04/20 12:24:48;;;;;;;2.58;1.05;;;22.30;35.00;;;;;;5079528;28;20044;-76
2022/04/20 12:27:22;;;;;;;4.63;1.23;;;22.40;35.10;;;;;;5062902;28;20412;-76
2022/04/20 12:29:55;;;;;;;1.48;0.90;;;22.70;33.80;;;;;;5062518;28;20598;-76
2022/04/20 12:32:25;;;;;;;2.92;0.80;;;22.60;34.00;;;;;;5062431;28;20077;-76
2022/04/20 12:34:59;;;;;;;4.75;1.02;;;22.80;34.40;;;;;;5077943;28;20065;-76
2022/04/20 12:37:31;;;;;;;3.17;0.90;;;22.70;33.10;;;;;;5076387;28;20093;-76
2022/04/20 12:40:17;;;;;;;5.47;1.13;;;22.50;33.60;;;;;;5059889;28;20040;-76
2022/04/20 12:42:59;;;;;;;4.13;1.10;;;22.50;33.50;;;;;;5075564;28;20036;-77
2022/04/20 12:45:25;;;;;;;3.53;1.10;;;22.50;33.20;;;;;;5075440;28;20143;-77
2022/04/20 12:48:00;;;;;;;4.72;0.82;;;22.50;34.30;;;;;;5075884;28;20111;-77
2022/04/20 12:50:33;;;;;;;5.47;0.98;;;22.60;33.90;;;;;;5075427;28;20531;-77
2022/04/20 12:52:59;;;;;;;2.05;0.90;;;22.90;34.40;;;;;;5075705;28;20082;-77
2022/04/20 12:55:37;;;;;;;6.03;0.90;;;22.80;33.30;;;;;;5075593;28;20576;-77
2022/04/20 13:03:39;;;;;;;5.05;1.20;;;22.80;33.40;;;;;;5075181;28;20040;-77
2022/04/20 13:06:10;;;;;;;2.85;0.90;;;23.00;33.80;;;;;;5075214;28;20492;-77
2022/04/20 13:08:36;;;;;;;2.55;1.05;;;22.90;33.20;;;;;;5075188;28;20040;-77
2022/04/20 13:11:02;;;;;;;5.43;1.17;;;22.90;33.30;;;;;;5075177;28;20404;-77
2022/04/20 13:13:29;;;;;;;4.18;1.00;;;22.90;33.10;;;;;;5075111;28;20408;-77
2022/04/20 13:15:55;;;;;;;2.45;0.85;;;22.80;33.10;;;;;;5075366;28;20075;-77
2022/04/20 13:18:21;;;;;;;2.15;0.88;;;22.80;33.10;;;;;;5075062;28;20515;-77
2022/04/20 13:20:47;;;;;;;3.25;0.85;;;22.90;33.30;;;;;;5075013;28;20065;-77
2022/04/20 13:23:13;;;;;;;3.05;0.98;;;22.80;33.80;;;;;;5074985;28;20133;-77
2022/04/20 13:28:25;;;;;;;2.85;1.10;;;22.90;34.00;;;;;;5075116;28;20040;-77
2022/04/20 13:30:51;;;;;;;3.97;0.90;;;22.90;34.30;;;;;;5075228;28;20497;-77
2022/04/20 13:33:16;;;;;;;2.15;1.05;;;22.80;33.40;;;;;;5074894;28;20051;-77
2022/04/20 13:35:44;;;;;;;3.78;1.25;;;22.80;34.60;;;;;;5074987;28;20037;-77
2022/04/20 13:38:10;;;;;;;4.32;1.00;;;22.80;35.00;;;;;;5074996;28;20072;-77
2022/04/20 13:40:38;;;;;;;1.25;0.98;;;22.90;35.00;;;;;;5075144;28;20051;-77
2022/04/20 13:43:10;;;;;;;4.22;1.27;;;22.80;34.60;;;;;;5074794;28;20123;-77